Forside
METAR-TAF:

METAR-TAF

Lufthavne :

Shawbury, England

Breddekreds: 52-48N, længdekreds: 002-40W, højde: 76 m

Aktuelle vejr

Denne rapport blev lavet for 1 time og 23 minutter siden, kl. 03:50 UTC
Vind 9 kt fra østnordøst
Temperatur 2°C
Fugtighed 93%
Tryk 983 hPa
Sigt 10 km eller mere

METAR: EGOS 050350Z AUTO 06009KT 9999 OVC004/// 02/01 Q0983 REUP

Tid: 05:13 (05:13 UTC)

Vejrudsigter

Denne rapport blev lavet for 15 timer og 36 minutter siden, kl. 13:37 UTC
Foreløbig gælder fra 04 på 15 UTC til 04 på 18 UTC
Vind 12 kt fra vest
Sigt 10 km eller mere
Brudte skyer i en højde af 2000 ft
ændring
fra 04 på 15 UTC til 04 på 18 UTC
Brudte skyer i en højde af 1000 ft
Sandsynlighed 30% :
Midlertidig
fra 04 på 15 UTC til 04 på 18 UTC
Sigt: 4000 m
regn, finregn
Sandsynlighed 30% :
Midlertidig
fra 04 på 17 UTC til 04 på 18 UTC
Spredte skyer i en højde af 500 ft

TAF: EGOS 041337Z 0415/0418 27012KT 9999 BKN020 BECMG 0415/0418 BKN010 PROB30 TEMPO 0415/0418 4000 RADZ PROB30 TEMPO 0417/0418 SCT005

Vejrobservationer og prognoser fra mere end 4000 lufthavne (METAR og TAF).

De gule og røde prikker repræsenterer de meteorologiske stationer.

Flyt musen over at se navnet på stationen.

Så klik over at se vejr observationer og prognoser.

At skifte det kort: Klik på de grønne knapper med et sort kors for at zoome ind; på den grønne knap med en bindestreg for at zoome ud; eller på de grønne pile for tilstødende kort.


METAR-TAF: